sensor_id;sensor_type;location;lat;lon;timestamp;pressure;altitude;pressure_sealevel;temperature;humidity
19096;BME280;9680;52.520;13.332;2023-01-29T00:02:00;102448.91;;;0.79;67.62
19096;BME280;9680;52.520;13.332;2023-01-29T00:04:29;102444.72;;;0.81;67.86
19096;BME280;9680;52.520;13.332;2023-01-29T00:06:58;102449.19;;;0.89;67.93
19096;BME280;9680;52.520;13.332;2023-01-29T00:09:28;102446.69;;;0.90;67.88
19096;BME280;9680;52.520;13.332;2023-01-29T00:11:58;102448.53;;;0.96;67.76
19096;BME280;9680;52.520;13.332;2023-01-29T00:14:24;102452.00;;;0.96;67.65
19096;BME280;9680;52.520;13.332;2023-01-29T00:16:52;102448.59;;;0.97;67.47
19096;BME280;9680;52.520;13.332;2023-01-29T00:19:19;102455.47;;;0.98;67.80
19096;BME280;9680;52.520;13.332;2023-01-29T00:21:46;102444.44;;;1.01;67.53
19096;BME280;9680;52.520;13.332;2023-01-29T00:24:12;102439.31;;;1.01;67.39
19096;BME280;9680;52.520;13.332;2023-01-29T00:26:39;102437.44;;;0.97;67.48
19096;BME280;9680;52.520;13.332;2023-01-29T00:29:08;102429.81;;;0.98;67.54
19096;BME280;9680;52.520;13.332;2023-01-29T00:31:35;102436.63;;;0.98;67.58
19096;BME280;9680;52.520;13.332;2023-01-29T00:34:02;102429.88;;;1.00;67.44
19096;BME280;9680;52.520;13.332;2023-01-29T00:36:29;102435.88;;;1.00;67.70
19096;BME280;9680;52.520;13.332;2023-01-29T00:38:56;102432.44;;;1.00;67.53
19096;BME280;9680;52.520;13.332;2023-01-29T00:41:26;102417.03;;;1.00;67.59
19096;BME280;9680;52.520;13.332;2023-01-29T00:44:12;102412.03;;;1.05;67.77
19096;BME280;9680;52.520;13.332;2023-01-29T00:47:08;102403.38;;;1.01;67.74
19096;BME280;9680;52.520;13.332;2023-01-29T00:49:55;102405.81;;;0.98;67.73
19096;BME280;9680;52.520;13.332;2023-01-29T00:52:23;102406.72;;;0.98;67.88
19096;BME280;9680;52.520;13.332;2023-01-29T00:54:50;102408.53;;;1.02;68.00
19096;BME280;9680;52.520;13.332;2023-01-29T00:57:17;102410.34;;;1.05;67.95
19096;BME280;9680;52.520;13.332;2023-01-29T00:59:45;102413.72;;;1.04;67.87
19096;BME280;9680;52.520;13.332;2023-01-29T01:02:11;102420.59;;;1.05;68.14
19096;BME280;9680;52.520;13.332;2023-01-29T01:04:56;102421.53;;;1.07;67.85
19096;BME280;9680;52.520;13.332;2023-01-29T01:07:22;102420.69;;;1.08;68.08
19096;BME280;9680;52.520;13.332;2023-01-29T01:09:49;102414.72;;;1.09;68.25
19096;BME280;9680;52.520;13.332;2023-01-29T01:12:34;102412.19;;;1.11;68.27
19096;BME280;9680;52.520;13.332;2023-01-29T01:15:02;102417.25;;;1.08;68.27
19096;BME280;9680;52.520;13.332;2023-01-29T01:17:30;102417.16;;;1.05;68.45
19096;BME280;9680;52.520;13.332;2023-01-29T01:19:57;102410.09;;;0.97;68.55
19096;BME280;9680;52.520;13.332;2023-01-29T01:22:23;102410.06;;;0.96;68.84
19096;BME280;9680;52.520;13.332;2023-01-29T01:24:50;102406.47;;;0.91;69.15
19096;BME280;9680;52.520;13.332;2023-01-29T01:27:17;102417.56;;;0.90;69.00
19096;BME280;9680;52.520;13.332;2023-01-29T01:29:44;102415.00;;;0.90;69.25
19096;BME280;9680;52.520;13.332;2023-01-29T01:32:12;102405.66;;;0.92;69.36
19096;BME280;9680;52.520;13.332;2023-01-29T01:34:40;102401.25;;;0.87;69.36
19096;BME280;9680;52.520;13.332;2023-01-29T01:37:07;102408.94;;;0.86;69.43
19096;BME280;9680;52.520;13.332;2023-01-29T01:39:33;102415.84;;;0.89;69.64
19096;BME280;9680;52.520;13.332;2023-01-29T01:42:00;102413.28;;;0.89;69.78
19096;BME280;9680;52.520;13.332;2023-01-29T01:44:53;102418.47;;;0.90;69.81
19096;BME280;9680;52.520;13.332;2023-01-29T01:47:27;102419.47;;;0.95;69.76
19096;BME280;9680;52.520;13.332;2023-01-29T01:49:58;102418.72;;;0.99;69.84
19096;BME280;9680;52.520;13.332;2023-01-29T01:52:29;102416.31;;;1.04;69.63
19096;BME280;9680;52.520;13.332;2023-01-29T01:54:58;102409.50;;;1.06;69.62
19096;BME280;9680;52.520;13.332;2023-01-29T01:57:26;102410.28;;;1.04;69.50
19096;BME280;9680;52.520;13.332;2023-01-29T01:59:58;102408.72;;;1.09;69.75
19096;BME280;9680;52.520;13.332;2023-01-29T02:02:41;102400.16;;;1.08;69.48
19096;BME280;9680;52.520;13.332;2023-01-29T02:05:28;102389.00;;;1.08;69.62
19096;BME280;9680;52.520;13.332;2023-01-29T02:08:14;102385.59;;;1.07;69.53
19096;BME280;9680;52.520;13.332;2023-01-29T02:10:59;102387.31;;;1.08;69.61
19096;BME280;9680;52.520;13.332;2023-01-29T02:13:26;102382.19;;;1.08;69.72
19096;BME280;9680;52.520;13.332;2023-01-29T02:15:54;102379.53;;;1.05;69.76
19096;BME280;9680;52.520;13.332;2023-01-29T02:18:23;102390.63;;;1.04;69.86
19096;BME280;9680;52.520;13.332;2023-01-29T02:21:05;102386.44;;;1.08;70.00
19096;BME280;9680;52.520;13.332;2023-01-29T02:24:01;102385.69;;;1.12;69.92
19096;BME280;9680;52.520;13.332;2023-01-29T02:26:46;102376.41;;;1.15;69.85
19096;BME280;9680;52.520;13.332;2023-01-29T02:29:21;102369.69;;;1.21;69.84
19096;BME280;9680;52.520;13.332;2023-01-29T02:32:03;102368.03;;;1.23;70.03
19096;BME280;9680;52.520;13.332;2023-01-29T02:34:40;102379.22;;;1.25;69.74
19096;BME280;9680;52.520;13.332;2023-01-29T02:37:33;102377.47;;;1.24;69.68
19096;BME280;9680;52.520;13.332;2023-01-29T02:40:07;102382.53;;;1.22;69.85
19096;BME280;9680;52.520;13.332;2023-01-29T02:42:40;102379.97;;;1.22;70.01
19096;BME280;9680;52.520;13.332;2023-01-29T02:45:13;102379.97;;;1.22;69.97
19096;BME280;9680;52.520;13.332;2023-01-29T02:47:46;102380.88;;;1.23;70.00
19096;BME280;9680;52.520;13.332;2023-01-29T02:50:17;102378.38;;;1.26;70.25
19096;BME280;9680;52.520;13.332;2023-01-29T02:52:52;102367.22;;;1.25;70.19
19096;BME280;9680;52.520;13.332;2023-01-29T02:55:28;102362.16;;;1.28;70.21
19096;BME280;9680;52.520;13.332;2023-01-29T02:58:01;102361.41;;;1.31;70.12
19096;BME280;9680;52.520;13.332;2023-01-29T03:00:35;102361.47;;;1.34;70.07
19096;BME280;9680;52.520;13.332;2023-01-29T03:03:08;102363.22;;;1.35;69.89
19096;BME280;9680;52.520;13.332;2023-01-29T03:05:44;102359.78;;;1.35;70.33
19096;BME280;9680;52.520;13.332;2023-01-29T03:08:19;102361.53;;;1.36;70.36
19096;BME280;9680;52.520;13.332;2023-01-29T03:10:50;102360.66;;;1.35;70.37
19096;BME280;9680;52.520;13.332;2023-01-29T03:13:23;102361.47;;;1.34;70.39
19096;BME280;9680;52.520;13.332;2023-01-29T03:15:58;102354.69;;;1.36;70.65
19096;BME280;9680;52.520;13.332;2023-01-29T03:18:41;102354.81;;;1.41;70.64
19096;BME280;9680;52.520;13.332;2023-01-29T03:21:15;102353.78;;;1.34;70.53
19096;BME280;9680;52.520;13.332;2023-01-29T03:24:03;102350.28;;;1.32;70.78
19096;BME280;9680;52.520;13.332;2023-01-29T03:26:50;102357.16;;;1.33;70.80
19096;BME280;9680;52.520;13.332;2023-01-29T03:29:39;102351.13;;;1.31;70.90
19096;BME280;9680;52.520;13.332;2023-01-29T03:32:38;102346.81;;;1.30;70.78
19096;BME280;9680;52.520;13.332;2023-01-29T03:35:08;102341.75;;;1.33;71.04
19096;BME280;9680;52.520;13.332;2023-01-29T03:37:40;102337.50;;;1.34;70.89
19096;BME280;9680;52.520;13.332;2023-01-29T03:40:10;102339.31;;;1.38;71.02
19096;BME280;9680;52.520;13.332;2023-01-29T03:42:47;102323.84;;;1.35;70.92
19096;BME280;9680;52.520;13.332;2023-01-29T03:45:19;102322.00;;;1.30;70.93
19096;BME280;9680;52.520;13.332;2023-01-29T03:47:55;102311.78;;;1.32;71.13
19096;BME280;9680;52.520;13.332;2023-01-29T03:50:33;102300.63;;;1.31;71.29
19096;BME280;9680;52.520;13.332;2023-01-29T03:53:09;102299.84;;;1.34;71.65
19096;BME280;9680;52.520;13.332;2023-01-29T03:55:42;102302.47;;;1.36;71.28
19096;BME280;9680;52.520;13.332;2023-01-29T03:58:19;102299.06;;;1.37;71.35
19096;BME280;9680;52.520;13.332;2023-01-29T04:00:53;102290.53;;;1.38;71.36
19096;BME280;9680;52.520;13.332;2023-01-29T04:03:30;102290.59;;;1.41;71.38
19096;BME280;9680;52.520;13.332;2023-01-29T04:06:07;102273.41;;;1.38;71.50
19096;BME280;9680;52.520;13.332;2023-01-29T04:08:44;102272.56;;;1.39;71.58
19096;BME280;9680;52.520;13.332;2023-01-29T04:11:17;102263.13;;;1.38;71.69
19096;BME280;9680;52.520;13.332;2023-01-29T04:13:46;102257.16;;;1.39;71.88
19096;BME280;9680;52.520;13.332;2023-01-29T04:16:18;102254.53;;;1.36;71.87
19096;BME280;9680;52.520;13.332;2023-01-29T04:19:00;102245.13;;;1.37;72.26
19096;BME280;9680;52.520;13.332;2023-01-29T04:21:32;102245.06;;;1.34;72.75
19096;BME280;9680;52.520;13.332;2023-01-29T04:24:02;102244.13;;;1.31;72.92
19096;BME280;9680;52.520;13.332;2023-01-29T04:26:47;102249.25;;;1.30;73.38
19096;BME280;9680;52.520;13.332;2023-01-29T04:29:27;102251.75;;;1.28;73.54
19096;BME280;9680;52.520;13.332;2023-01-29T04:32:03;102243.19;;;1.28;73.93
19096;BME280;9680;52.520;13.332;2023-01-29T04:34:40;102233.75;;;1.27;74.30
19096;BME280;9680;52.520;13.332;2023-01-29T04:37:14;102230.34;;;1.28;74.53
19096;BME280;9680;52.520;13.332;2023-01-29T04:39:48;102234.63;;;1.27;74.82
19096;BME280;9680;52.520;13.332;2023-01-29T04:42:28;102231.19;;;1.27;75.14
19096;BME280;9680;52.520;13.332;2023-01-29T04:45:02;102236.41;;;1.30;75.27
19096;BME280;9680;52.520;13.332;2023-01-29T04:47:34;102238.06;;;1.28;75.46
19096;BME280;9680;52.520;13.332;2023-01-29T04:50:11;102239.81;;;1.29;75.75
19096;BME280;9680;52.520;13.332;2023-01-29T04:52:44;102235.63;;;1.33;75.81
19096;BME280;9680;52.520;13.332;2023-01-29T04:55:18;102246.75;;;1.33;76.03
19096;BME280;9680;52.520;13.332;2023-01-29T04:57:51;102242.50;;;1.34;76.26
19096;BME280;9680;52.520;13.332;2023-01-29T05:00:23;102239.81;;;1.29;76.55
19096;BME280;9680;52.520;13.332;2023-01-29T05:02:53;102246.66;;;1.30;76.77
19096;BME280;9680;52.520;13.332;2023-01-29T05:05:21;102236.31;;;1.27;77.00
19096;BME280;9680;52.520;13.332;2023-01-29T05:07:48;102231.22;;;1.28;77.26
19096;BME280;9680;52.520;13.332;2023-01-29T05:10:18;102244.94;;;1.29;77.28
19096;BME280;9680;52.520;13.332;2023-01-29T05:12:48;102247.53;;;1.30;77.51
19096;BME280;9680;52.520;13.332;2023-01-29T05:15:18;102237.09;;;1.23;78.02
19096;BME280;9680;52.520;13.332;2023-01-29T05:17:45;102249.03;;;1.22;78.00
19096;BME280;9680;52.520;13.332;2023-01-29T05:20:12;102238.75;;;1.21;78.39
19096;BME280;9680;52.520;13.332;2023-01-29T05:22:41;102249.94;;;1.24;78.51
19096;BME280;9680;52.520;13.332;2023-01-29T05:25:19;102251.59;;;1.22;78.65
19096;BME280;9680;52.520;13.332;2023-01-29T05:27:48;102255.06;;;1.23;78.81
19096;BME280;9680;52.520;13.332;2023-01-29T05:30:30;102254.22;;;1.24;78.80
19096;BME280;9680;52.520;13.332;2023-01-29T05:32:57;102243.19;;;1.28;79.09
19096;BME280;9680;52.520;13.332;2023-01-29T05:35:24;102249.16;;;1.27;79.37
19096;BME280;9680;52.520;13.332;2023-01-29T05:37:53;102242.38;;;1.30;78.93
19096;BME280;9680;52.520;13.332;2023-01-29T05:40:20;102250.06;;;1.29;78.88
19096;BME280;9680;52.520;13.332;2023-01-29T05:42:47;102251.75;;;1.28;78.93
19096;BME280;9680;52.520;13.332;2023-01-29T05:45:15;102252.66;;;1.30;78.92
19096;BME280;9680;52.520;13.332;2023-01-29T05:47:42;102251.88;;;1.33;78.99
19096;BME280;9680;52.520;13.332;2023-01-29T05:50:10;102251.97;;;1.36;79.08
19096;BME280;9680;52.520;13.332;2023-01-29T05:52:36;102259.78;;;1.41;79.03
19096;BME280;9680;52.520;13.332;2023-01-29T05:55:06;102258.16;;;1.44;79.08
19096;BME280;9680;52.520;13.332;2023-01-29T05:57:33;102261.59;;;1.45;78.80
19096;BME280;9680;52.520;13.332;2023-01-29T06:00:00;102265.84;;;1.44;79.16
19096;BME280;9680;52.520;13.332;2023-01-29T06:02:37;102263.25;;;1.43;79.06
19096;BME280;9680;52.520;13.332;2023-01-29T06:05:05;102271.00;;;1.44;79.12
19096;BME280;9680;52.520;13.332;2023-01-29T06:07:31;102260.78;;;1.46;79.18
19096;BME280;9680;52.520;13.332;2023-01-29T06:09:58;102269.44;;;1.51;79.29
19096;BME280;9680;52.520;13.332;2023-01-29T06:12:26;102277.09;;;1.50;79.11
19096;BME280;9680;52.520;13.332;2023-01-29T06:14:53;102276.19;;;1.48;79.12
19096;BME280;9680;52.520;13.332;2023-01-29T06:17:20;102282.16;;;1.47;79.20
19096;BME280;9680;52.520;13.332;2023-01-29T06:19:47;102286.47;;;1.48;79.17
19096;BME280;9680;52.520;13.332;2023-01-29T06:22:13;102280.50;;;1.49;79.24
19096;BME280;9680;52.520;13.332;2023-01-29T06:24:40;102270.31;;;1.52;79.32
19096;BME280;9680;52.520;13.332;2023-01-29T06:27:07;102269.44;;;1.51;79.05
19096;BME280;9680;52.520;13.332;2023-01-29T06:29:35;102267.66;;;1.49;79.08
19096;BME280;9680;52.520;13.332;2023-01-29T06:32:01;102266.81;;;1.50;79.40
19096;BME280;9680;52.520;13.332;2023-01-29T06:34:28;102271.13;;;1.51;79.38
19096;BME280;9680;52.520;13.332;2023-01-29T06:36:55;102264.25;;;1.50;79.42
19096;BME280;9680;52.520;13.332;2023-01-29T06:39:22;102268.56;;;1.51;79.58
19096;BME280;9680;52.520;13.332;2023-01-29T06:41:49;102265.16;;;1.50;79.52
19096;BME280;9680;52.520;13.332;2023-01-29T06:44:16;102255.66;;;1.48;79.56
19096;BME280;9680;52.520;13.332;2023-01-29T06:46:44;102261.69;;;1.50;79.60
19096;BME280;9680;52.520;13.332;2023-01-29T06:49:11;102264.31;;;1.51;79.55
19096;BME280;9680;52.520;13.332;2023-01-29T06:51:37;102272.03;;;1.53;79.63
19096;BME280;9680;52.520;13.332;2023-01-29T06:54:04;102294.31;;;1.54;79.64
19096;BME280;9680;52.520;13.332;2023-01-29T06:56:33;102277.25;;;1.56;79.81
19096;BME280;9680;52.520;13.332;2023-01-29T06:58:59;102278.22;;;1.61;79.86
19096;BME280;9680;52.520;13.332;2023-01-29T07:01:26;102264.56;;;1.62;79.79
19096;BME280;9680;52.520;13.332;2023-01-29T07:03:55;102268.03;;;1.64;79.82
19096;BME280;9680;52.520;13.332;2023-01-29T07:06:26;102265.44;;;1.64;79.90
19096;BME280;9680;52.520;13.332;2023-01-29T07:08:53;102262.88;;;1.63;79.88
19096;BME280;9680;52.520;13.332;2023-01-29T07:11:20;102263.78;;;1.65;79.68
19096;BME280;9680;52.520;13.332;2023-01-29T07:13:47;102263.66;;;1.60;79.90
19096;BME280;9680;52.520;13.332;2023-01-29T07:16:16;102257.59;;;1.58;80.38
19096;BME280;9680;52.520;13.332;2023-01-29T07:18:43;102251.63;;;1.57;80.25
19096;BME280;9680;52.520;13.332;2023-01-29T07:21:13;102260.16;;;1.56;80.42
19096;BME280;9680;52.520;13.332;2023-01-29T07:23:39;102252.47;;;1.58;80.49
19096;BME280;9680;52.520;13.332;2023-01-29T07:26:06;102258.56;;;1.62;80.64
19096;BME280;9680;52.520;13.332;2023-01-29T07:28:35;102274.81;;;1.62;80.92
19096;BME280;9680;52.520;13.332;2023-01-29T07:31:03;102277.47;;;1.65;81.19
19096;BME280;9680;52.520;13.332;2023-01-29T07:33:30;102269.88;;;1.68;80.75
19096;BME280;9680;52.520;13.332;2023-01-29T07:35:58;102259.66;;;1.71;81.04
19096;BME280;9680;52.520;13.332;2023-01-29T07:38:26;102271.69;;;1.74;81.16
19096;BME280;9680;52.520;13.332;2023-01-29T07:40:53;102270.06;;;1.78;81.03
19096;BME280;9680;52.520;13.332;2023-01-29T07:43:20;102267.53;;;1.79;81.13
19096;BME280;9680;52.520;13.332;2023-01-29T07:45:49;102260.75;;;1.83;81.12
19096;BME280;9680;52.520;13.332;2023-01-29T07:48:16;102244.53;;;1.85;81.04
19096;BME280;9680;52.520;13.332;2023-01-29T07:50:42;102237.69;;;1.86;81.07
19096;BME280;9680;52.520;13.332;2023-01-29T07:53:12;102226.59;;;1.88;81.15
19096;BME280;9680;52.520;13.332;2023-01-29T07:55:42;102226.59;;;1.88;81.13
19096;BME280;9680;52.520;13.332;2023-01-29T07:58:09;102224.91;;;1.89;81.12
19096;BME280;9680;52.520;13.332;2023-01-29T08:00:36;102230.91;;;1.89;81.16
19096;BME280;9680;52.520;13.332;2023-01-29T08:03:05;102241.19;;;1.88;81.44
19096;BME280;9680;52.520;13.332;2023-01-29T08:05:32;102239.38;;;1.85;81.46
19096;BME280;9680;52.520;13.332;2023-01-29T08:07:59;102220.53;;;1.85;81.87
19096;BME280;9680;52.520;13.332;2023-01-29T08:10:26;102216.31;;;1.88;82.02
19096;BME280;9680;52.520;13.332;2023-01-29T08:12:56;102217.28;;;1.92;82.14
19096;BME280;9680;52.520;13.332;2023-01-29T08:15:24;102210.34;;;1.89;82.17
19096;BME280;9680;52.520;13.332;2023-01-29T08:17:51;102212.97;;;1.93;82.08
19096;BME280;9680;52.520;13.332;2023-01-29T08:20:20;102216.53;;;1.98;82.21
19096;BME280;9680;52.520;13.332;2023-01-29T08:22:47;102218.31;;;2.00;82.13
19096;BME280;9680;52.520;13.332;2023-01-29T08:25:14;102217.44;;;2.00;82.09
19096;BME280;9680;52.520;13.332;2023-01-29T08:27:41;102226.91;;;2.02;82.24
19096;BME280;9680;52.520;13.332;2023-01-29T08:30:11;102219.94;;;1.97;82.02
19096;BME280;9680;52.520;13.332;2023-01-29T08:32:38;102222.59;;;2.01;82.42
19096;BME280;9680;52.520;13.332;2023-01-29T08:35:05;102213.28;;;2.07;82.43
19096;BME280;9680;52.520;13.332;2023-01-29T08:37:32;102215.97;;;2.11;82.58
19096;BME280;9680;52.520;13.332;2023-01-29T08:39:58;102222.94;;;2.17;82.44
19096;BME280;9680;52.520;13.332;2023-01-29T08:42:25;102222.03;;;2.15;82.18
19096;BME280;9680;52.520;13.332;2023-01-29T08:44:52;102217.84;;;2.20;82.42
19096;BME280;9680;52.520;13.332;2023-01-29T08:47:20;102221.31;;;2.21;82.12
19096;BME280;9680;52.520;13.332;2023-01-29T08:49:47;102211.91;;;2.23;82.32
19096;BME280;9680;52.520;13.332;2023-01-29T08:52:13;102216.16;;;2.22;82.14
19096;BME280;9680;52.520;13.332;2023-01-29T08:54:40;102224.72;;;2.21;82.28
19096;BME280;9680;52.520;13.332;2023-01-29T08:57:07;102214.53;;;2.26;82.41
19096;BME280;9680;52.520;13.332;2023-01-29T08:59:33;102215.47;;;2.29;82.22
19096;BME280;9680;52.520;13.332;2023-01-29T09:02:00;102214.63;;;2.30;82.27
19096;BME280;9680;52.520;13.332;2023-01-29T09:04:28;102208.00;;;2.42;82.24
19096;BME280;9680;52.520;13.332;2023-01-29T09:06:55;102209.81;;;2.46;82.09
19096;BME280;9680;52.520;13.332;2023-01-29T09:09:22;102206.41;;;2.48;81.77
19096;BME280;9680;52.520;13.332;2023-01-29T09:11:49;102212.56;;;2.57;81.80
19096;BME280;9680;52.520;13.332;2023-01-29T09:14:16;102207.53;;;2.63;81.73
19096;BME280;9680;52.520;13.332;2023-01-29T09:16:42;102211.03;;;2.67;81.54
19096;BME280;9680;52.520;13.332;2023-01-29T09:19:09;102210.19;;;2.66;81.05
19096;BME280;9680;52.520;13.332;2023-01-29T09:21:37;102204.19;;;2.67;80.91
19096;BME280;9680;52.520;13.332;2023-01-29T09:24:05;102200.00;;;2.72;80.97
19096;BME280;9680;52.520;13.332;2023-01-29T09:26:31;102200.94;;;2.78;80.98
19096;BME280;9680;52.520;13.332;2023-01-29T09:28:58;102200.22;;;2.85;80.77
19096;BME280;9680;52.520;13.332;2023-01-29T09:31:25;102203.66;;;2.85;80.42
19096;BME280;9680;52.520;13.332;2023-01-29T09:33:53;102196.88;;;2.90;80.47
19096;BME280;9680;52.520;13.332;2023-01-29T09:36:19;102188.34;;;2.95;80.23
19096;BME280;9680;52.520;13.332;2023-01-29T09:38:47;102196.13;;;2.98;80.05
19096;BME280;9680;52.520;13.332;2023-01-29T09:41:25;102197.16;;;3.06;79.82
19096;BME280;9680;52.520;13.332;2023-01-29T09:43:56;102192.16;;;3.15;79.60
19096;BME280;9680;52.520;13.332;2023-01-29T09:46:29;102191.25;;;3.15;79.08
19096;BME280;9680;52.520;13.332;2023-01-29T09:49:03;102180.25;;;3.25;79.40
19096;BME280;9680;52.520;13.332;2023-01-29T09:51:37;102173.63;;;3.40;79.34
19096;BME280;9680;52.520;13.332;2023-01-29T09:54:13;102171.28;;;3.55;78.84
19096;BME280;9680;52.520;13.332;2023-01-29T09:56:44;102166.25;;;3.64;78.35
19096;BME280;9680;52.520;13.332;2023-01-29T09:59:12;102156.91;;;3.71;78.20
19096;BME280;9680;52.520;13.332;2023-01-29T10:01:46;102147.63;;;3.86;78.18
19096;BME280;9680;52.520;13.332;2023-01-29T10:04:38;102145.13;;;3.93;77.30
19096;BME280;9680;52.520;13.332;2023-01-29T10:07:19;102141.66;;;3.90;76.74
19096;BME280;9680;52.520;13.332;2023-01-29T10:10:12;102143.19;;;3.75;75.96
19096;BME280;9680;52.520;13.332;2023-01-29T10:12:51;102136.94;;;3.56;75.99
19096;BME280;9680;52.520;13.332;2023-01-29T10:15:29;102126.56;;;3.52;76.48
19096;BME280;9680;52.520;13.332;2023-01-29T10:18:10;102130.81;;;3.49;76.52
19096;BME280;9680;52.520;13.332;2023-01-29T10:20:52;102125.78;;;3.59;77.29
19096;BME280;9680;52.520;13.332;2023-01-29T10:23:26;102133.69;;;3.71;77.11
19096;BME280;9680;52.520;13.332;2023-01-29T10:25:57;102144.16;;;3.84;76.68
19096;BME280;9680;52.520;13.332;2023-01-29T10:28:28;102149.41;;;3.90;76.25
19096;BME280;9680;52.520;13.332;2023-01-29T10:31:00;102158.00;;;3.92;75.98
19096;BME280;9680;52.520;13.332;2023-01-29T10:33:32;102145.16;;;3.95;75.16
19096;BME280;9680;52.520;13.332;2023-01-29T10:36:03;102142.66;;;4.00;75.24
19096;BME280;9680;52.520;13.332;2023-01-29T10:38:42;102140.22;;;4.14;75.17
19096;BME280;9680;52.520;13.332;2023-01-29T10:44:18;102118.22;;;4.47;74.19
19096;BME280;9680;52.520;13.332;2023-01-29T10:47:04;102119.16;;;4.55;73.89
19096;BME280;9680;52.520;13.332;2023-01-29T10:49:45;102108.03;;;4.65;73.61
19096;BME280;9680;52.520;13.332;2023-01-29T10:52:25;102104.63;;;4.68;72.98
19096;BME280;9680;52.520;13.332;2023-01-29T10:55:04;102103.91;;;4.85;73.26
19096;BME280;9680;52.520;13.332;2023-01-29T10:57:46;102098.81;;;4.97;72.77
19096;BME280;9680;52.520;13.332;2023-01-29T11:00:20;102096.34;;;5.11;72.14
19096;BME280;9680;52.520;13.332;2023-01-29T11:02:49;102086.91;;;5.18;71.52
19096;BME280;9680;52.520;13.332;2023-01-29T11:05:24;102073.06;;;5.06;70.79
19096;BME280;9680;52.520;13.332;2023-01-29T11:08:01;102073.03;;;4.99;70.93
19096;BME280;9680;52.520;13.332;2023-01-29T11:10:37;102080.75;;;4.97;71.16
19096;BME280;9680;52.520;13.332;2023-01-29T11:13:12;102068.72;;;5.01;71.00
19096;BME280;9680;52.520;13.332;2023-01-29T11:15:40;102059.22;;;4.96;70.49
19096;BME280;9680;52.520;13.332;2023-01-29T11:18:08;102060.03;;;4.92;70.03
19096;BME280;9680;52.520;13.332;2023-01-29T11:20:39;102060.06;;;4.95;70.67
19096;BME280;9680;52.520;13.332;2023-01-29T11:23:24;102054.91;;;4.94;69.84
19096;BME280;9680;52.520;13.332;2023-01-29T11:25:52;102053.25;;;5.04;70.30
19096;BME280;9680;52.520;13.332;2023-01-29T11:28:37;102053.34;;;5.19;70.49
19096;BME280;9680;52.520;13.332;2023-01-29T11:31:15;102049.91;;;5.28;69.61
19096;BME280;9680;52.520;13.332;2023-01-29T11:33:43;102043.00;;;5.19;69.15
19096;BME280;9680;52.520;13.332;2023-01-29T11:36:20;102042.13;;;5.19;68.92
19096;BME280;9680;52.520;13.332;2023-01-29T11:39:07;102033.56;;;5.29;69.08
19096;BME280;9680;52.520;13.332;2023-01-29T11:41:42;102030.16;;;5.35;68.90
19096;BME280;9680;52.520;13.332;2023-01-29T11:44:18;102024.16;;;5.37;68.41
19096;BME280;9680;52.520;13.332;2023-01-29T11:46:46;102025.00;;;5.39;68.43
19096;BME280;9680;52.520;13.332;2023-01-29T11:49:21;102024.13;;;5.39;67.98
19096;BME280;9680;52.520;13.332;2023-01-29T11:51:51;102015.53;;;5.43;68.33
19096;BME280;9680;52.520;13.332;2023-01-29T11:54:22;102019.03;;;5.53;68.00
19096;BME280;9680;52.520;13.332;2023-01-29T11:56:51;102012.16;;;5.58;67.91
19096;BME280;9680;52.520;13.332;2023-01-29T11:59:28;102015.59;;;5.59;67.45
19096;BME280;9680;52.520;13.332;2023-01-29T12:02:04;102011.31;;;5.65;67.53
19096;BME280;9680;52.520;13.332;2023-01-29T12:04:38;101995.84;;;5.73;67.11
19096;BME280;9680;52.520;13.332;2023-01-29T12:07:10;102001.00;;;5.70;66.80
19096;BME280;9680;52.520;13.332;2023-01-29T12:09:39;102000.13;;;5.68;66.54
19096;BME280;9680;52.520;13.332;2023-01-29T12:12:27;101990.63;;;5.72;66.87
19096;BME280;9680;52.520;13.332;2023-01-29T12:15:14;101974.25;;;5.69;66.27
19096;BME280;9680;52.520;13.332;2023-01-29T12:17:46;101982.88;;;5.65;66.38
19096;BME280;9680;52.520;13.332;2023-01-29T12:20:21;101984.63;;;5.71;66.33
19096;BME280;9680;52.520;13.332;2023-01-29T12:22:52;101985.50;;;5.73;66.11
19096;BME280;9680;52.520;13.332;2023-01-29T12:25:28;101977.72;;;5.73;66.12
19096;BME280;9680;52.520;13.332;2023-01-29T12:28:04;101970.84;;;5.72;65.91
19096;BME280;9680;52.520;13.332;2023-01-29T12:30:38;101970.78;;;5.63;66.05
19096;BME280;9680;52.520;13.332;2023-01-29T12:33:13;101972.50;;;5.58;66.34
19096;BME280;9680;52.520;13.332;2023-01-29T12:35:47;101961.31;;;5.63;66.42
19096;BME280;9680;52.520;13.332;2023-01-29T12:38:18;101950.09;;;5.63;66.25
19096;BME280;9680;52.520;13.332;2023-01-29T12:40:47;101955.25;;;5.60;66.22
19096;BME280;9680;52.520;13.332;2023-01-29T12:43:17;101944.06;;;5.59;66.08
19096;BME280;9680;52.520;13.332;2023-01-29T12:45:51;101948.38;;;5.54;66.18
19096;BME280;9680;52.520;13.332;2023-01-29T12:48:22;101951.81;;;5.48;66.29
19096;BME280;9680;52.520;13.332;2023-01-29T12:50:52;101951.75;;;5.33;65.89
19096;BME280;9680;52.520;13.332;2023-01-29T12:53:25;101948.25;;;5.09;66.31
19096;BME280;9680;52.520;13.332;2023-01-29T12:55:58;101939.59;;;5.02;66.99
19096;BME280;9680;52.520;13.332;2023-01-29T12:58:31;101949.00;;;4.95;67.12
19096;BME280;9680;52.520;13.332;2023-01-29T13:01:05;101941.22;;;4.89;67.09
19096;BME280;9680;52.520;13.332;2023-01-29T13:03:42;101943.81;;;4.85;67.55
19096;BME280;9680;52.520;13.332;2023-01-29T13:06:14;101941.19;;;4.78;67.41
19096;BME280;9680;52.520;13.332;2023-01-29T13:08:47;101945.50;;;4.79;67.97
19096;BME280;9680;52.520;13.332;2023-01-29T13:11:19;101937.75;;;4.78;68.02
19096;BME280;9680;52.520;13.332;2023-01-29T13:13:49;101942.06;;;4.77;68.08
19096;BME280;9680;52.520;13.332;2023-01-29T13:16:22;101933.44;;;4.77;68.24
19096;BME280;9680;52.520;13.332;2023-01-29T13:18:53;101929.13;;;4.74;68.24
19096;BME280;9680;52.520;13.332;2023-01-29T13:21:25;101929.13;;;4.74;68.21
19096;BME280;9680;52.520;13.332;2023-01-29T13:23:56;101925.69;;;4.77;68.50
19096;BME280;9680;52.520;13.332;2023-01-29T13:26:26;101927.44;;;4.79;68.59
19096;BME280;9680;52.520;13.332;2023-01-29T13:28:53;101918.81;;;4.79;68.49